createdAt,value
2023-11-18T00:00:12.239Z,98900.69
2023-11-18T00:02:40.025Z,98898.19
2023-11-18T00:05:08.807Z,98905.47
2023-11-18T00:07:36.075Z,98907.56
2023-11-18T00:10:03.752Z,98912.59
2023-11-18T00:12:30.552Z,98913.84
2023-11-18T00:14:57.777Z,98916.38
2023-11-18T00:17:24.825Z,98919.13
2023-11-18T00:19:51.985Z,98925.97
2023-11-18T00:22:19.334Z,98921.00
2023-11-18T00:24:46.416Z,98918.34
2023-11-18T00:27:16.121Z,98931.59
2023-11-18T00:29:44.916Z,98937.22
2023-11-18T00:32:12.854Z,98927.25
2023-11-18T00:34:40.211Z,98931.66
2023-11-18T00:37:08.379Z,98937.03
2023-11-18T00:39:35.676Z,98936.44
2023-11-18T00:42:02.924Z,98933.97
2023-11-18T00:44:30.187Z,98947.84
2023-11-18T00:49:27.274Z,98954.94
2023-11-18T00:51:54.466Z,98958.44
2023-11-18T00:54:21.313Z,98962.19
2023-11-18T00:56:48.370Z,98954.72
2023-11-18T00:59:15.491Z,98964.66
2023-11-18T01:01:43.251Z,98971.53
2023-11-18T01:04:10.634Z,98963.03
2023-11-18T01:06:37.593Z,98959.09
2023-11-18T01:09:05.039Z,98963.66
2023-11-18T01:11:32.132Z,98963.06
2023-11-18T01:13:59.524Z,98966.59
2023-11-18T01:16:26.703Z,98965.56
2023-11-18T01:18:53.875Z,98964.34
2023-11-18T01:21:21.313Z,98971.81
2023-11-18T01:23:50.083Z,98969.12
2023-11-18T01:26:17.496Z,98961.69
2023-11-18T01:28:46.221Z,98964.81
2023-11-18T01:31:13.346Z,98975.19
2023-11-18T01:33:41.600Z,98974.16
2023-11-18T01:36:09.739Z,98977.25
2023-11-18T01:38:39.824Z,98976.66
2023-11-18T01:41:07.902Z,98978.13
2023-11-18T01:43:34.959Z,98971.69
2023-11-18T01:46:11.564Z,98972.50
2023-11-18T01:48:39.293Z,98976.47
2023-11-18T01:51:08.652Z,98981.69
2023-11-18T01:53:37.804Z,98982.06
2023-11-18T01:56:06.925Z,98985.81
2023-11-18T01:58:37.013Z,98979.19
2023-11-18T02:01:09.320Z,98988.13
2023-11-18T02:03:37.254Z,98979.00
2023-11-18T02:06:06.399Z,98977.97
2023-11-18T02:08:36.299Z,98987.53
2023-11-18T02:11:20.114Z,98979.44
2023-11-18T02:13:51.421Z,98985.00
2023-11-18T02:16:20.734Z,98986.28
2023-11-18T02:18:50.424Z,98993.13
2023-11-18T02:21:17.862Z,98998.31
2023-11-18T02:23:45.092Z,98998.91
2023-11-18T02:26:12.254Z,99000.16
2023-11-18T02:28:39.899Z,99004.50
2023-11-18T02:31:16.724Z,99015.91
2023-11-18T02:33:57.497Z,99015.06
2023-11-18T02:36:43.023Z,99018.59
2023-11-18T02:39:18.624Z,99016.50
2023-11-18T02:41:49.449Z,99019.22
2023-11-18T02:44:19.486Z,99034.16
2023-11-18T02:46:46.777Z,99029.81
2023-11-18T02:49:13.989Z,99032.87
2023-11-18T02:51:41.190Z,99029.38
2023-11-18T02:54:11.830Z,99030.84
2023-11-18T02:56:39.344Z,99027.72
2023-11-18T02:59:06.844Z,99028.97
2023-11-18T03:01:35.122Z,99034.34
2023-11-18T03:04:03.490Z,99035.41
2023-11-18T03:06:30.711Z,99046.38
2023-11-18T03:08:57.875Z,99043.06
2023-11-18T03:11:26.344Z,99040.37
2023-11-18T03:13:53.254Z,99050.13
2023-11-18T03:16:20.512Z,99051.97
2023-11-18T03:18:47.686Z,99055.91
2023-11-18T03:21:15.258Z,99057.16
2023-11-18T03:23:43.173Z,99050.94
2023-11-18T03:26:11.522Z,99056.75
2023-11-18T03:28:39.538Z,99061.94
2023-11-18T03:31:07.555Z,99066.50
2023-11-18T03:33:34.881Z,99069.19
2023-11-18T03:36:01.795Z,99069.59
2023-11-18T03:38:29.932Z,99070.03
2023-11-18T03:40:58.177Z,99071.06
2023-11-18T03:43:25.354Z,99067.53
2023-11-18T03:45:57.968Z,99078.31
2023-11-18T03:48:25.501Z,99076.25
2023-11-18T03:50:52.707Z,99072.53
2023-11-18T03:53:19.805Z,99074.38
2023-11-18T03:55:46.632Z,99072.06
2023-11-18T03:58:13.758Z,99067.72
2023-11-18T04:00:40.813Z,99073.31
2023-11-18T04:03:08.732Z,99075.81
2023-11-18T04:05:36.169Z,99084.72
2023-11-18T04:08:03.406Z,99090.31
2023-11-18T04:10:30.608Z,99095.91
2023-11-18T04:12:58.242Z,99096.50
2023-11-18T04:15:25.460Z,99094.44
2023-11-18T04:17:53.570Z,99090.31
2023-11-18T04:20:20.589Z,99095.91
2023-11-18T04:22:47.743Z,99088.03
2023-11-18T04:25:14.574Z,99085.34
2023-11-18T04:27:45.366Z,99082.66
2023-11-18T04:30:14.764Z,99084.09
2023-11-18T04:32:43.838Z,99089.69
2023-11-18T04:35:13.143Z,99095.06
2023-11-18T04:37:44.597Z,99089.06
2023-11-18T04:40:12.628Z,99090.91
2023-11-18T04:42:40.900Z,99075.19
2023-11-18T04:45:10.771Z,99084.91
2023-11-18T04:47:39.486Z,99085.13
2023-11-18T04:50:09.610Z,99083.47
2023-11-18T04:52:37.887Z,99084.09
2023-11-18T04:55:07.373Z,99089.06
2023-11-18T04:57:34.944Z,99093.41
2023-11-18T05:00:11.697Z,99084.72
2023-11-18T05:02:42.888Z,99095.06
2023-11-18T05:05:10.632Z,99095.06
2023-11-18T05:07:37.731Z,99105.00
2023-11-18T05:10:05.276Z,99101.69
2023-11-18T05:12:34.093Z,99106.88
2023-11-18T05:15:01.943Z,99111.44
2023-11-18T05:17:28.852Z,99105.00
2023-11-18T05:19:56.079Z,99096.09
2023-11-18T05:22:23.229Z,99106.03
2023-11-18T05:24:50.009Z,99115.38
2023-11-18T05:27:18.720Z,99104.59
2023-11-18T05:29:55.680Z,99108.94
2023-11-18T05:32:24.167Z,99109.34
2023-11-18T05:34:55.010Z,99108.75
2023-11-18T05:37:23.973Z,99112.47
2023-11-18T05:40:00.211Z,99104.59
2023-11-18T05:42:29.319Z,99112.69
2023-11-18T05:45:00.459Z,99111.03
2023-11-18T05:47:28.137Z,99110.81
2023-11-18T05:49:55.755Z,99117.66
2023-11-18T05:52:23.877Z,99118.47
2023-11-18T05:54:51.193Z,99114.12
2023-11-18T05:57:19.342Z,99122.63
2023-11-18T05:59:49.834Z,99114.75
2023-11-18T06:02:20.506Z,99121.38
2023-11-18T06:04:48.400Z,99120.97
2023-11-18T06:07:15.953Z,99124.47
2023-11-18T06:09:46.901Z,99131.94
2023-11-18T06:12:13.982Z,99132.97
2023-11-18T06:14:43.147Z,99146.44
2023-11-18T06:17:10.099Z,99140.00
2023-11-18T06:19:37.332Z,99149.75
2023-11-18T06:22:04.520Z,99152.84
2023-11-18T06:24:31.314Z,99144.56
2023-11-18T06:27:00.821Z,99158.66
2023-11-18T06:29:27.810Z,99156.16
2023-11-18T06:31:54.572Z,99160.72
2023-11-18T06:34:22.047Z,99169.84
2023-11-18T06:36:49.080Z,99174.38
2023-11-18T06:39:17.596Z,99186.81
2023-11-18T06:41:49.597Z,99178.53
2023-11-18T06:44:19.492Z,99182.25
2023-11-18T06:46:46.668Z,99185.56
2023-11-18T06:49:16.728Z,99188.88
2023-11-18T06:51:44.254Z,99195.47
2023-11-18T06:54:12.262Z,99196.97
2023-11-18T06:56:44.248Z,99200.47
2023-11-18T06:59:17.087Z,99200.06
2023-11-18T07:01:46.065Z,99211.88
2023-11-18T07:04:15.922Z,99207.31
2023-11-18T07:06:44.664Z,99207.94
2023-11-18T07:09:18.842Z,99203.19
2023-11-18T07:11:48.341Z,99199.44
2023-11-18T07:14:16.401Z,99210.00
2023-11-18T07:16:44.376Z,99206.28
2023-11-18T07:19:18.733Z,99211.66
2023-11-18T07:21:46.300Z,99211.25
2023-11-18T07:24:13.525Z,99219.97
2023-11-18T07:26:40.640Z,99220.78
2023-11-18T07:29:10.588Z,99221.41
2023-11-18T07:31:37.527Z,99231.78
2023-11-18T07:34:06.876Z,99236.81
2023-11-18T07:36:34.694Z,99235.75
2023-11-18T07:39:02.984Z,99239.09
2023-11-18T07:41:33.835Z,99241.34
2023-11-18T07:44:02.237Z,99234.72
2023-11-18T07:46:32.402Z,99236.38
2023-11-18T07:48:59.927Z,99228.94
2023-11-18T07:51:26.736Z,99247.16
2023-11-18T07:53:56.680Z,99240.53
2023-11-18T07:56:24.450Z,99250.25
2023-11-18T07:58:53.312Z,99246.97
2023-11-18T08:01:22.625Z,99250.28
2023-11-18T08:03:52.542Z,99248.84
2023-11-18T08:06:19.939Z,99249.88
2023-11-18T08:08:49.258Z,99260.84
2023-11-18T08:11:16.772Z,99248.44
2023-11-18T08:13:45.136Z,99257.97
2023-11-18T08:16:14.114Z,99254.66
2023-11-18T08:18:41.025Z,99244.91
2023-11-18T08:21:08.693Z,99251.31
2023-11-18T08:23:35.661Z,99255.06
2023-11-18T08:26:03.656Z,99258.78
2023-11-18T08:28:30.728Z,99260.03
2023-11-18T08:30:57.569Z,99252.75
2023-11-18T08:33:27.574Z,99256.66
2023-11-18T08:35:54.838Z,99253.97
2023-11-18T08:38:22.038Z,99258.75
2023-11-18T08:40:50.241Z,99257.06
2023-11-18T08:43:18.032Z,99262.03
2023-11-18T08:45:46.330Z,99271.13
2023-11-18T08:48:13.513Z,99268.66
2023-11-18T08:50:41.477Z,99266.16
2023-11-18T08:53:11.472Z,99269.03
2023-11-18T08:55:57.670Z,99272.53
2023-11-18T08:58:29.286Z,99275.22
2023-11-18T09:01:07.658Z,99271.88
2023-11-18T09:03:38.375Z,99283.06
2023-11-18T09:06:18.689Z,99284.09
2023-11-18T09:08:47.307Z,99282.44
2023-11-18T09:11:16.206Z,99282.38
2023-11-18T09:13:46.192Z,99278.00
2023-11-18T09:16:13.514Z,99285.44
2023-11-18T09:18:43.677Z,99285.63
2023-11-18T09:21:16.444Z,99276.91
2023-11-18T09:23:46.428Z,99281.66
2023-11-18T09:26:13.850Z,99281.00
2023-11-18T09:28:41.485Z,99286.78
2023-11-18T09:31:15.986Z,99281.56
2023-11-18T09:33:53.417Z,99283.03
2023-11-18T09:36:21.714Z,99285.88
2023-11-18T09:38:49.670Z,99288.75
2023-11-18T09:41:19.781Z,99284.34
2023-11-18T09:43:49.119Z,99273.69
2023-11-18T09:46:23.244Z,99282.00
2023-11-18T09:49:00.659Z,99285.13
2023-11-18T09:51:33.776Z,99276.34
2023-11-18T09:54:02.130Z,99283.81
2023-11-18T09:56:58.322Z,99286.88
2023-11-18T09:59:32.138Z,99288.94
2023-11-18T10:01:59.833Z,99294.31
2023-11-18T10:04:29.594Z,99293.88
2023-11-18T10:06:57.805Z,99295.28
2023-11-18T10:09:41.009Z,99295.47
2023-11-18T10:12:13.804Z,99299.59
2023-11-18T10:14:45.143Z,99296.44
2023-11-18T10:17:15.725Z,99293.75
2023-11-18T10:20:00.901Z,99297.06
2023-11-18T10:22:30.618Z,99298.28
2023-11-18T10:24:58.977Z,99300.37
2023-11-18T10:27:27.676Z,99293.09
2023-11-18T10:29:59.148Z,99297.47
2023-11-18T10:32:29.488Z,99298.88
2023-11-18T10:34:58.520Z,99294.09
2023-11-18T10:37:32.801Z,99294.47
2023-11-18T10:40:05.588Z,99306.50
2023-11-18T10:42:34.397Z,99305.81
2023-11-18T10:45:05.324Z,99300.00
2023-11-18T10:47:39.422Z,99298.47
2023-11-18T10:50:11.080Z,99294.28
2023-11-18T10:52:42.015Z,99300.87
2023-11-18T10:55:13.614Z,99289.59
2023-11-18T10:57:43.933Z,99288.09
2023-11-18T11:00:16.141Z,99294.13
2023-11-18T11:02:43.572Z,99291.19
2023-11-18T11:05:22.292Z,99297.84
2023-11-18T11:07:50.430Z,99286.56
2023-11-18T11:10:18.188Z,99286.09
2023-11-18T11:12:54.980Z,99283.16
2023-11-18T11:15:42.106Z,99282.69
2023-11-18T11:18:28.850Z,99283.06
2023-11-18T11:21:06.393Z,99278.66
2023-11-18T11:23:51.004Z,99273.16
2023-11-18T11:26:31.806Z,99264.94
2023-11-18T11:29:29.901Z,99281.09
2023-11-18T11:32:40.337Z,99275.03
2023-11-18T11:35:18.153Z,99269.37
2023-11-18T11:37:46.085Z,99275.16
2023-11-18T11:40:22.856Z,99277.41
2023-11-18T11:42:58.256Z,99276.72
2023-11-18T11:45:29.846Z,99291.47
2023-11-18T11:48:18.052Z,99291.00
2023-11-18T11:50:55.736Z,99280.53
2023-11-18T11:53:32.292Z,99290.34
2023-11-18T11:56:07.268Z,99291.75
2023-11-18T11:58:40.478Z,99288.81
2023-11-18T12:01:39.766Z,99293.16
2023-11-18T12:04:11.988Z,99291.28
2023-11-18T12:06:45.880Z,99295.66
2023-11-18T12:09:20.654Z,99288.34
2023-11-18T12:11:50.167Z,99288.56
2023-11-18T12:14:23.728Z,99296.47
2023-11-18T12:17:10.103Z,99296.25
2023-11-18T12:19:52.132Z,99293.53
2023-11-18T12:22:27.827Z,99300.63
2023-11-18T12:24:59.038Z,99304.16
2023-11-18T12:27:41.841Z,99297.91
2023-11-18T12:30:27.702Z,99295.19
2023-11-18T12:33:02.862Z,99297.91
2023-11-18T12:35:30.889Z,99302.25
2023-11-18T12:38:41.546Z,99302.88
2023-11-18T12:41:12.832Z,99307.47
2023-11-18T12:44:03.838Z,99307.22
2023-11-18T12:46:54.657Z,99309.34
2023-11-18T12:49:26.139Z,99311.22
2023-11-18T12:51:56.217Z,99313.34
2023-11-18T12:54:28.707Z,99311.47
2023-11-18T12:56:58.822Z,99314.41
2023-11-18T12:59:25.953Z,99310.03
2023-11-18T13:02:00.061Z,99313.81
2023-11-18T13:04:28.746Z,99312.16
2023-11-18T13:06:56.205Z,99310.72
2023-11-18T13:09:27.627Z,99318.03
2023-11-18T13:12:02.215Z,99321.81
2023-11-18T13:14:37.463Z,99319.91
2023-11-18T13:17:10.084Z,99327.66
2023-11-18T13:19:37.302Z,99330.00
2023-11-18T13:22:12.458Z,99325.88
2023-11-18T13:24:41.585Z,99332.34
2023-11-18T13:27:10.393Z,99333.41
2023-11-18T13:29:40.890Z,99346.34
2023-11-18T13:32:11.477Z,99353.87
2023-11-18T13:34:40.867Z,99359.75
2023-11-18T13:37:08.831Z,99355.41
2023-11-18T13:39:35.901Z,99359.63
2023-11-18T13:42:24.147Z,99341.72
2023-11-18T13:44:54.090Z,99342.75
2023-11-18T13:47:22.114Z,99346.50
2023-11-18T13:49:53.608Z,99342.00
2023-11-18T13:52:22.211Z,99336.81
2023-11-18T13:54:51.017Z,99340.56
2023-11-18T13:57:17.967Z,99342.44
2023-11-18T13:59:45.942Z,99339.38
2023-11-18T14:02:13.462Z,99330.41
2023-11-18T14:04:41.048Z,99325.44
2023-11-18T14:07:10.633Z,99318.38
2023-11-18T14:09:41.235Z,99319.88
2023-11-18T14:12:09.863Z,99323.84
2023-11-18T14:14:38.451Z,99330.13
2023-11-18T14:17:07.446Z,99333.72
2023-11-18T14:19:36.313Z,99338.28
2023-11-18T14:22:08.161Z,99335.22
2023-11-18T14:24:35.639Z,99333.56
2023-11-18T14:27:03.088Z,99338.59
2023-11-18T14:29:30.605Z,99341.53
2023-11-18T14:31:58.231Z,99343.63
2023-11-18T14:34:25.700Z,99347.03
2023-11-18T14:36:52.826Z,99359.09
2023-11-18T14:39:23.994Z,99358.28
2023-11-18T14:41:51.901Z,99361.44
2023-11-18T14:44:19.161Z,99359.78
2023-11-18T14:46:47.505Z,99370.81
2023-11-18T14:49:14.740Z,99371.28
2023-11-18T14:51:41.803Z,99365.88
2023-11-18T14:54:10.016Z,99361.94
2023-11-18T14:56:37.027Z,99359.09
2023-11-18T14:59:06.762Z,99356.81
2023-11-18T15:01:34.290Z,99356.41
2023-11-18T15:04:05.286Z,99361.88
2023-11-18T15:06:32.431Z,99371.72
2023-11-18T15:08:59.354Z,99378.19
2023-11-18T15:11:26.339Z,99381.34
2023-11-18T15:13:54.892Z,99393.81
2023-11-18T15:16:22.556Z,99393.84
2023-11-18T15:18:53.673Z,99391.78
2023-11-18T15:21:20.911Z,99391.19
2023-11-18T15:23:49.528Z,99401.00
2023-11-18T15:26:16.907Z,99401.66
2023-11-18T15:28:43.895Z,99415.63
2023-11-18T15:31:11.012Z,99425.84
2023-11-18T15:33:38.689Z,99433.97
2023-11-18T15:36:08.691Z,99424.38
2023-11-18T15:38:36.828Z,99436.91
2023-11-18T15:41:04.304Z,99440.25
2023-11-18T15:43:31.457Z,99433.62
2023-11-18T15:45:59.685Z,99435.50
2023-11-18T15:48:27.655Z,99440.06
2023-11-18T15:50:58.550Z,99439.66
2023-11-18T15:53:29.391Z,99439.25
2023-11-18T15:55:56.535Z,99437.59
2023-11-18T15:58:27.441Z,99443.22
2023-11-18T16:00:54.979Z,99431.81
2023-11-18T16:03:22.621Z,99423.91
2023-11-18T16:05:50.730Z,99416.63
2023-11-18T16:08:17.942Z,99404.56
2023-11-18T16:10:46.260Z,99413.09
2023-11-18T16:13:14.664Z,99399.78
2023-11-18T16:15:42.541Z,99400.84
2023-11-18T16:18:13.081Z,99392.94
2023-11-18T16:20:40.178Z,99405.25
2023-11-18T16:23:07.453Z,99407.94
2023-11-18T16:25:38.714Z,99405.84
2023-11-18T16:28:09.188Z,99411.25
2023-11-18T16:30:36.382Z,99420.00
2023-11-18T16:33:05.077Z,99421.66
2023-11-18T16:35:32.558Z,99429.56
2023-11-18T16:38:01.756Z,99433.31
2023-11-18T16:40:29.980Z,99436.00
2023-11-18T16:42:57.746Z,99445.81
2023-11-18T16:46:53.947Z,99459.75
2023-11-18T16:49:23.036Z,99465.56
2023-11-18T16:51:53.835Z,99479.50
2023-11-18T16:54:33.356Z,99487.81
2023-11-18T16:57:06.888Z,99492.19
2023-11-18T16:59:34.136Z,99492.63
2023-11-18T17:02:01.008Z,99500.28
2023-11-18T17:04:28.628Z,99491.75
2023-11-18T17:06:56.476Z,99484.91
2023-11-18T17:09:23.706Z,99498.63
2023-11-18T17:11:50.744Z,99496.97
2023-11-18T17:14:17.713Z,99499.69
2023-11-18T17:16:45.117Z,99486.34
2023-11-18T17:19:12.938Z,99486.34
2023-11-18T17:21:39.933Z,99486.16
2023-11-18T17:24:09.040Z,99482.44
2023-11-18T17:26:40.469Z,99474.53
2023-11-18T17:29:08.158Z,99488.88
2023-11-18T17:31:36.372Z,99495.94
2023-11-18T17:34:03.835Z,99494.28
2023-11-18T17:36:31.605Z,99481.81
2023-11-18T17:38:59.090Z,99478.91
2023-11-18T17:41:27.080Z,99474.94
2023-11-18T17:43:54.758Z,99473.91
2023-11-18T17:46:22.079Z,99472.25
2023-11-18T17:48:49.403Z,99467.28
2023-11-18T17:51:16.395Z,99466.66
2023-11-18T17:53:43.628Z,99458.56
2023-11-18T17:56:10.832Z,99460.00
2023-11-18T17:58:39.440Z,99465.22
2023-11-18T18:01:08.363Z,99467.28
2023-11-18T18:03:35.819Z,99456.50
2023-11-18T18:06:04.777Z,99457.12
2023-11-18T18:08:35.617Z,99462.97
2023-11-18T18:11:04.403Z,99450.88
2023-11-18T18:13:32.614Z,99449.84
2023-11-18T18:15:59.869Z,99447.78
2023-11-18T18:18:27.084Z,99458.78
2023-11-18T18:20:54.454Z,99460.03
2023-11-18T18:23:22.004Z,99450.72
2023-11-18T18:25:49.816Z,99459.41
2023-11-18T18:28:17.873Z,99456.06
2023-11-18T18:30:45.412Z,99456.09
2023-11-18T18:33:13.151Z,99449.84
2023-11-18T18:35:40.900Z,99440.31
2023-11-18T18:38:09.292Z,99440.53
2023-11-18T18:40:36.882Z,99443.81
2023-11-18T18:43:04.883Z,99435.94
2023-11-18T18:45:32.638Z,99425.56
2023-11-18T18:48:00.526Z,99440.28
2023-11-18T18:50:27.928Z,99438.22
2023-11-18T18:52:54.954Z,99428.66
2023-11-18T18:55:22.550Z,99431.78
2023-11-18T18:57:49.696Z,99433.00
2023-11-18T19:00:19.059Z,99429.87
2023-11-18T19:02:47.673Z,99430.28
2023-11-18T19:05:15.997Z,99423.66
2023-11-18T19:07:43.610Z,99409.94
2023-11-18T19:10:11.142Z,99423.22
2023-11-18T19:12:38.478Z,99423.81
2023-11-18T19:15:06.632Z,99431.47
2023-11-18T19:17:36.172Z,99443.28
2023-11-18T19:20:07.835Z,99451.34
2023-11-18T19:22:34.901Z,99452.37
2023-11-18T19:25:01.925Z,99450.09
2023-11-18T19:27:28.759Z,99444.28
2023-11-18T19:29:56.542Z,99437.59
2023-11-18T19:32:24.271Z,99426.66
2023-11-18T19:34:51.690Z,99428.91
2023-11-18T19:37:18.621Z,99433.88
2023-11-18T19:39:46.266Z,99433.62
2023-11-18T19:42:13.733Z,99433.84
2023-11-18T19:44:41.047Z,99423.47
2023-11-18T19:47:08.205Z,99414.78
2023-11-18T19:49:36.302Z,99414.53
2023-11-18T19:52:06.916Z,99425.31
2023-11-18T19:54:35.316Z,99422.13
2023-11-18T19:57:03.213Z,99423.38
2023-11-18T19:59:30.752Z,99424.19
2023-11-18T20:02:00.388Z,99424.19
2023-11-18T20:04:28.193Z,99420.63
2023-11-18T20:06:55.178Z,99435.31
2023-11-18T20:09:23.108Z,99428.63
2023-11-18T20:11:52.570Z,99429.87
2023-11-18T20:14:21.650Z,99415.16
2023-11-18T20:16:50.688Z,99416.19
2023-11-18T20:19:18.189Z,99423.63
2023-11-18T20:21:46.691Z,99413.47
2023-11-18T20:24:14.233Z,99406.63
2023-11-18T20:26:42.900Z,99419.44
2023-11-18T20:29:10.750Z,99420.84
2023-11-18T20:31:41.353Z,99416.69
2023-11-18T20:34:12.998Z,99421.44
2023-11-18T20:36:41.551Z,99418.31
2023-11-18T20:39:08.531Z,99413.53
2023-11-18T20:41:36.108Z,99410.41
2023-11-18T20:44:04.613Z,99402.94
2023-11-18T20:46:32.486Z,99391.69
2023-11-18T20:49:00.372Z,99390.63
2023-11-18T20:51:27.804Z,99382.56
2023-11-18T20:53:54.837Z,99369.06
2023-11-18T20:56:23.923Z,99369.91
2023-11-18T20:58:52.105Z,99362.44
2023-11-18T21:01:19.841Z,99357.88
2023-11-18T21:03:47.722Z,99349.19
2023-11-18T21:06:21.356Z,99358.09
2023-11-18T21:08:49.075Z,99360.97
2023-11-18T21:11:16.836Z,99352.47
2023-11-18T21:13:45.245Z,99349.59
2023-11-18T21:16:14.416Z,99352.06
2023-11-18T21:18:42.793Z,99351.44
2023-11-18T21:21:12.789Z,99354.31
2023-11-18T21:23:41.020Z,99344.78
2023-11-18T21:26:08.154Z,99341.25
2023-11-18T21:28:37.008Z,99335.25
2023-11-18T21:31:04.704Z,99333.16
2023-11-18T21:33:32.547Z,99332.13
2023-11-18T21:36:00.058Z,99328.78
2023-11-18T21:38:27.586Z,99312.88
2023-11-18T21:40:55.695Z,99322.78
2023-11-18T21:43:22.499Z,99314.53
2023-11-18T21:45:49.636Z,99320.09
2023-11-18T21:48:17.576Z,99321.31
2023-11-18T21:50:44.574Z,99316.78
2023-11-18T21:53:11.742Z,99319.22
2023-11-18T21:55:38.921Z,99324.59
2023-11-18T21:58:07.103Z,99325.16
2023-11-18T22:00:34.286Z,99335.75
2023-11-18T22:03:04.357Z,99320.81
2023-11-18T22:05:31.752Z,99314.19
2023-11-18T22:07:58.734Z,99310.66
2023-11-18T22:10:26.902Z,99308.16
2023-11-18T22:12:54.632Z,99295.94
2023-11-18T22:15:23.502Z,99304.22
2023-11-18T22:17:53.201Z,99303.38
2023-11-18T22:20:25.863Z,99298.19
2023-11-18T22:22:53.293Z,99306.47
2023-11-18T22:25:20.950Z,99316.56
2023-11-18T22:27:48.980Z,99318.81
2023-11-18T22:30:17.545Z,99317.31
2023-11-18T22:32:44.669Z,99319.19
2023-11-18T22:35:11.964Z,99309.47
2023-11-18T22:37:39.176Z,99308.00
2023-11-18T22:40:11.906Z,99307.81
2023-11-18T22:42:40.705Z,99319.78
2023-11-18T22:45:17.417Z,99324.69
2023-11-18T22:47:45.956Z,99326.38
2023-11-18T22:50:16.567Z,99331.72
2023-11-18T22:52:43.576Z,99333.19
2023-11-18T22:57:42.494Z,99311.50
2023-11-18T23:00:17.262Z,99307.16
2023-11-18T23:02:44.545Z,99314.00
2023-11-18T23:05:15.221Z,99311.31
2023-11-18T23:07:45.668Z,99295.19
2023-11-18T23:10:15.407Z,99296.22
2023-11-18T23:12:42.354Z,99285.28
2023-11-18T23:15:09.797Z,99279.72
2023-11-18T23:17:36.731Z,99275.38
2023-11-18T23:20:05.640Z,99277.03
2023-11-18T23:22:33.014Z,99278.72
2023-11-18T23:25:01.515Z,99270.47
2023-11-18T23:27:29.388Z,99262.19
2023-11-18T23:29:56.707Z,99252.09
2023-11-18T23:32:23.688Z,99257.47
2023-11-18T23:34:50.589Z,99258.09
2023-11-18T23:37:17.762Z,99258.09
2023-11-18T23:39:46.179Z,99272.56
2023-11-18T23:42:13.082Z,99274.84
2023-11-18T23:44:40.985Z,99259.56
2023-11-18T23:47:08.133Z,99252.94
2023-11-18T23:49:35.371Z,99252.94
2023-11-18T23:52:02.262Z,99254.41
2023-11-18T23:54:29.084Z,99262.47
2023-11-18T23:56:56.220Z,99256.28
2023-11-18T23:59:24.851Z,99243.88
